createdAt,value
2022-09-04T00:05:20.432Z,83.62
2022-09-04T00:10:31.059Z,84.18
2022-09-04T00:15:39.274Z,85.04
2022-09-04T00:20:50.493Z,85.04
2022-09-04T00:26:02.960Z,85.14
2022-09-04T00:31:39.138Z,85.57
2022-09-04T00:36:49.922Z,85.66
2022-09-04T00:42:16.406Z,84.86
2022-09-04T00:47:27.185Z,84.83
2022-09-04T00:52:58.165Z,84.29
2022-09-04T00:58:23.997Z,84.60
2022-09-04T01:03:38.781Z,85.12
2022-09-04T01:09:03.316Z,85.39
2022-09-04T01:14:22.755Z,85.03
2022-09-04T01:19:50.946Z,84.94
2022-09-04T01:25:26.635Z,84.89
2022-09-04T01:30:37.495Z,83.75
2022-09-04T01:36:03.836Z,83.33
2022-09-04T01:41:24.297Z,83.30
2022-09-04T01:46:47.714Z,84.84
2022-09-04T01:52:04.977Z,85.09
2022-09-04T01:57:15.773Z,85.34
2022-09-04T02:02:34.677Z,86.06
2022-09-04T02:07:43.284Z,85.22
2022-09-04T02:12:58.368Z,85.03
2022-09-04T02:18:37.712Z,85.41
2022-09-04T02:24:14.100Z,86.04
2022-09-04T02:29:23.446Z,85.60
2022-09-04T02:34:30.766Z,86.64
2022-09-04T02:39:45.850Z,86.54
2022-09-04T02:45:12.028Z,86.35
2022-09-04T02:50:21.420Z,86.56
2022-09-04T02:55:44.481Z,86.85
2022-09-04T03:00:54.297Z,86.70
2022-09-04T03:06:06.880Z,86.77
2022-09-04T03:11:30.180Z,86.53
2022-09-04T03:17:03.546Z,87.17
2022-09-04T03:22:14.420Z,87.06
2022-09-04T03:27:18.902Z,86.73
2022-09-04T03:32:42.843Z,86.89
2022-09-04T03:38:14.452Z,87.37
2022-09-04T03:43:16.126Z,87.66
2022-09-04T03:48:48.599Z,87.44
2022-09-04T03:54:09.088Z,88.32
2022-09-04T03:59:38.058Z,88.24
2022-09-04T04:04:57.739Z,89.10
2022-09-04T04:10:25.176Z,89.26
2022-09-04T04:15:45.380Z,89.62
2022-09-04T04:21:28.254Z,90.05
2022-09-04T04:27:04.050Z,90.34
2022-09-04T04:32:30.083Z,90.03
2022-09-04T04:37:59.338Z,89.76
2022-09-04T04:43:31.036Z,89.98
2022-09-04T04:49:12.919Z,90.34
2022-09-04T04:54:42.711Z,90.64
2022-09-04T05:00:27.380Z,91.08
2022-09-04T05:05:53.982Z,91.46
2022-09-04T05:11:04.082Z,91.93
2022-09-04T05:16:26.503Z,92.11
2022-09-04T05:21:49.157Z,91.75
2022-09-04T05:27:20.325Z,91.52
2022-09-04T05:32:38.147Z,91.63
2022-09-04T05:37:56.399Z,92.15
2022-09-04T05:43:26.088Z,92.78
2022-09-04T05:49:07.025Z,92.71
2022-09-04T05:54:33.403Z,90.78
2022-09-04T05:59:42.531Z,90.83
2022-09-04T06:05:08.563Z,90.12
2022-09-04T06:10:22.432Z,90.58
2022-09-04T06:15:37.443Z,90.94
2022-09-04T06:20:44.561Z,92.36
2022-09-04T06:26:15.146Z,93.79
2022-09-04T06:31:19.979Z,94.50
2022-09-04T06:36:49.805Z,95.38
2022-09-04T06:42:09.524Z,95.76
2022-09-04T06:47:25.763Z,95.33
2022-09-04T06:52:42.067Z,95.25
2022-09-04T06:57:47.069Z,94.36
2022-09-04T07:03:07.009Z,93.57
2022-09-04T07:08:30.899Z,93.22
2022-09-04T07:13:56.537Z,92.87
2022-09-04T07:19:22.734Z,92.52
2022-09-04T07:24:52.608Z,92.27
2022-09-04T07:30:14.809Z,91.80
2022-09-04T07:35:34.531Z,91.51
2022-09-04T07:40:44.601Z,91.82
2022-09-04T07:45:53.928Z,91.67
2022-09-04T07:51:33.346Z,90.79
2022-09-04T07:56:53.844Z,89.91
2022-09-04T08:02:14.414Z,89.02
2022-09-04T08:07:59.150Z,88.51
2022-09-04T08:13:39.695Z,87.44
2022-09-04T08:19:07.284Z,87.10
2022-09-04T08:24:32.321Z,87.23
2022-09-04T08:29:47.483Z,86.07
2022-09-04T08:35:01.921Z,85.78
2022-09-04T08:40:34.764Z,84.90
2022-09-04T08:45:42.641Z,84.90
2022-09-04T08:51:26.620Z,84.74
2022-09-04T08:57:07.277Z,84.42
2022-09-04T09:02:30.451Z,84.68
2022-09-04T09:07:59.245Z,83.58
2022-09-04T09:13:42.538Z,83.23
2022-09-04T09:18:47.252Z,82.95
2022-09-04T09:24:25.993Z,83.32
2022-09-04T09:29:59.881Z,83.00
2022-09-04T09:35:06.894Z,81.37
2022-09-04T09:40:31.742Z,81.34
2022-09-04T09:45:46.772Z,80.49
2022-09-04T09:51:02.583Z,80.22
2022-09-04T09:56:35.065Z,77.64
2022-09-04T10:01:46.088Z,77.91
2022-09-04T10:07:27.094Z,78.17
2022-09-04T10:13:13.560Z,77.20
2022-09-04T10:18:45.837Z,76.05
2022-09-04T10:23:50.385Z,76.77
2022-09-04T10:29:20.927Z,75.92
2022-09-04T10:34:50.909Z,73.33
2022-09-04T10:40:34.525Z,73.83
2022-09-04T10:45:45.074Z,73.28
2022-09-04T10:51:20.949Z,72.24
2022-09-04T10:56:36.378Z,71.73
2022-09-04T11:02:11.652Z,69.34
2022-09-04T11:07:29.787Z,68.74
2022-09-04T11:12:55.955Z,67.19
2022-09-04T11:18:25.387Z,66.74
2022-09-04T11:23:48.599Z,67.13
2022-09-04T11:29:08.916Z,66.14
2022-09-04T11:34:44.465Z,66.07
2022-09-04T11:40:03.365Z,64.00
2022-09-04T11:45:29.065Z,64.09
2022-09-04T11:50:36.815Z,64.19
2022-09-04T11:55:59.865Z,64.72
2022-09-04T12:01:16.132Z,62.32
2022-09-04T12:06:56.306Z,61.77
2022-09-04T12:12:12.349Z,61.17
2022-09-04T12:17:50.092Z,60.81
2022-09-04T12:23:12.450Z,60.01
2022-09-04T12:28:48.304Z,59.58
2022-09-04T12:34:05.448Z,59.34
2022-09-04T12:39:27.037Z,59.51
2022-09-04T12:44:43.929Z,58.37
2022-09-04T12:50:01.171Z,56.74
2022-09-04T12:55:33.371Z,54.33
2022-09-04T13:01:00.023Z,55.72
2022-09-04T13:06:23.378Z,54.41
2022-09-04T13:11:31.366Z,53.01
2022-09-04T13:16:41.873Z,52.95
2022-09-04T13:22:14.729Z,53.45
2022-09-04T13:27:34.837Z,52.38
2022-09-04T13:32:53.539Z,53.60
2022-09-04T13:38:15.222Z,52.74
2022-09-04T13:43:47.902Z,53.37
2022-09-04T13:49:16.409Z,52.92
2022-09-04T13:54:33.262Z,52.56
2022-09-04T13:59:35.726Z,51.89
2022-09-04T14:04:45.074Z,49.81
2022-09-04T14:09:50.148Z,50.21
2022-09-04T14:14:59.582Z,49.54
2022-09-04T14:20:31.398Z,49.73
2022-09-04T14:25:45.105Z,49.12
2022-09-04T14:31:22.934Z,49.62
2022-09-04T14:36:45.833Z,49.52
2022-09-04T14:41:54.496Z,47.82
2022-09-04T14:47:03.228Z,48.81
2022-09-04T14:52:14.972Z,48.30
2022-09-04T14:57:51.487Z,48.84
2022-09-04T15:03:12.067Z,49.48
2022-09-04T15:08:27.087Z,50.40
2022-09-04T15:13:28.921Z,51.76
2022-09-04T15:18:41.931Z,55.07
2022-09-04T15:23:52.916Z,53.77
2022-09-04T15:29:16.203Z,52.25
2022-09-04T15:34:24.494Z,50.72
2022-09-04T15:39:32.753Z,49.93
2022-09-04T15:44:41.242Z,49.31
2022-09-04T15:49:50.422Z,48.34
2022-09-04T15:55:11.347Z,48.84
2022-09-04T16:00:15.707Z,48.53
2022-09-04T16:05:45.075Z,47.85
2022-09-04T16:10:54.850Z,46.67
2022-09-04T16:16:05.593Z,49.92
2022-09-04T16:21:27.238Z,48.05
2022-09-04T16:26:33.016Z,50.41
2022-09-04T16:31:36.805Z,52.22
2022-09-04T16:36:48.193Z,51.47
2022-09-04T16:42:10.253Z,51.43
2022-09-04T16:47:37.120Z,53.69
2022-09-04T16:52:43.654Z,55.46
2022-09-04T16:58:07.520Z,57.31
2022-09-04T17:03:21.621Z,58.55
2022-09-04T17:08:39.313Z,59.87
2022-09-04T17:13:55.406Z,60.83
2022-09-04T17:18:57.352Z,62.19
2022-09-04T17:29:04.939Z,63.24
2022-09-04T17:29:44.656Z,64.51
2022-09-04T17:40:34.822Z,65.93
2022-09-04T17:41:38.039Z,67.88
2022-09-04T17:46:28.440Z,69.42
2022-09-04T17:51:34.766Z,70.70
2022-09-04T17:56:45.474Z,71.52
2022-09-04T18:02:05.028Z,72.42
2022-09-04T18:08:07.667Z,73.65
2022-09-04T18:13:36.563Z,74.74
2022-09-04T18:18:49.157Z,75.44
2022-09-04T18:24:10.136Z,76.16
2022-09-04T18:33:55.623Z,76.67
2022-09-04T18:37:25.319Z,77.73
2022-09-04T18:45:32.658Z,78.47
2022-09-04T18:50:21.914Z,78.82
2022-09-04T18:51:52.428Z,80.74
2022-09-04T18:57:01.028Z,81.14
2022-09-04T19:02:21.237Z,80.64
2022-09-04T19:07:41.039Z,80.83
2022-09-04T19:12:46.867Z,81.55
2022-09-04T19:17:55.423Z,81.84
2022-09-04T19:23:05.502Z,82.01
2022-09-04T19:28:39.430Z,81.69
2022-09-04T19:33:59.760Z,81.82
2022-09-04T19:45:56.146Z,81.67
2022-09-04T19:46:25.721Z,81.90
2022-09-04T19:53:20.030Z,82.66
2022-09-04T19:56:08.434Z,83.11
2022-09-04T20:01:20.209Z,83.69
2022-09-04T20:06:30.123Z,84.18
2022-09-04T20:11:39.477Z,84.76
2022-09-04T20:17:08.768Z,85.33
2022-09-04T20:22:45.300Z,85.81
2022-09-04T20:27:54.107Z,86.30
2022-09-04T20:33:21.565Z,86.86
2022-09-04T20:38:32.361Z,86.84
2022-09-04T20:44:03.499Z,86.81
2022-09-04T20:52:50.476Z,86.98
2022-09-04T20:54:54.172Z,86.75
2022-09-04T21:03:08.664Z,87.31
2022-09-04T21:06:06.829Z,87.47
2022-09-04T21:11:39.697Z,87.66
2022-09-04T21:16:43.927Z,87.81
2022-09-04T21:22:01.081Z,88.16
2022-09-04T21:27:14.642Z,88.34
2022-09-04T21:32:34.900Z,88.61
2022-09-04T21:37:46.606Z,88.31
2022-09-04T21:43:35.875Z,88.25
2022-09-04T21:49:26.381Z,87.67
2022-09-04T21:59:11.585Z,85.76
2022-09-04T22:02:36.346Z,85.21
2022-09-04T22:09:31.941Z,84.78
2022-09-04T22:13:33.323Z,84.26
2022-09-04T22:18:04.354Z,83.67
2022-09-04T22:23:30.769Z,83.28
2022-09-04T22:29:09.756Z,82.97
2022-09-04T22:34:39.687Z,82.93
2022-09-04T22:40:15.640Z,83.06
2022-09-04T22:45:54.577Z,83.35
2022-09-04T22:51:16.566Z,83.24
2022-09-04T22:56:52.523Z,82.98
2022-09-04T23:02:13.691Z,82.69
2022-09-04T23:11:05.690Z,82.81
2022-09-04T23:13:56.777Z,82.63
2022-09-04T23:26:36.428Z,82.30
2022-09-04T23:26:47.009Z,82.04
2022-09-04T23:30:54.785Z,82.35
2022-09-04T23:36:37.557Z,83.08
2022-09-04T23:41:48.811Z,83.02
2022-09-04T23:47:48.258Z,81.42
2022-09-04T23:53:22.100Z,82.58
2022-09-04T23:59:03.837Z,82.35
